Grandfather, North Carolina
Current Conditions -  °F | °C
As of 8:15 AM on Thursday 27 Nov 2014 (Local Time) from KTNB Reporting Station
Light Snow Light Snow  
Wind Chill: 21°   Ceiling: 1200
Heat Index: 31°   Visibility: 2.5mi
Dew Point: 30°   Wind: 16mph
Humidity: 95%   Direction: 310°NW
Pressure: 29.96"   Gusts: 30mph
Location:  36.1797°N, 81.8424°W
Report Text: KTNB 271315Z AUTO 31014G26KT 2 1/2SM -SN OVC012 00/M01 A2996 RMK AO2 T10031010
Loading
Personal Weather Stations






























Interactive Weather Map New forecast layout! Learn more

10-Day Weather Forecast

Advertisements
Track Severe Weather on mobile